sensor_id;sensor_type;location;lat;lon;timestamp;P1;durP1;ratioP1;P2;durP2;ratioP2
8964;SDS011;4517;49.020;12.066;2023-02-01T00:01:43;10.07;;;9.13;;
8964;SDS011;4517;49.020;12.066;2023-02-01T00:04:09;10.53;;;8.40;;
8964;SDS011;4517;49.020;12.066;2023-02-01T00:06:35;8.90;;;7.97;;
8964;SDS011;4517;49.020;12.066;2023-02-01T00:09:00;8.77;;;8.00;;
8964;SDS011;4517;49.020;12.066;2023-02-01T00:11:26;10.97;;;8.20;;
8964;SDS011;4517;49.020;12.066;2023-02-01T00:13:52;10.97;;;8.80;;
8964;SDS011;4517;49.020;12.066;2023-02-01T00:16:23;9.30;;;8.50;;
8964;SDS011;4517;49.020;12.066;2023-02-01T00:18:51;12.00;;;8.10;;
8964;SDS011;4517;49.020;12.066;2023-02-01T00:21:22;10.20;;;9.03;;
8964;SDS011;4517;49.020;12.066;2023-02-01T00:23:47;8.20;;;7.60;;
8964;SDS011;4517;49.020;12.066;2023-02-01T00:26:17;10.00;;;9.00;;
8964;SDS011;4517;49.020;12.066;2023-02-01T00:28:44;8.50;;;7.70;;
8964;SDS011;4517;49.020;12.066;2023-02-01T00:31:10;8.43;;;7.73;;
8964;SDS011;4517;49.020;12.066;2023-02-01T00:33:36;9.83;;;8.93;;
8964;SDS011;4517;49.020;12.066;2023-02-01T00:36:03;9.20;;;8.30;;
8964;SDS011;4517;49.020;12.066;2023-02-01T00:38:31;9.50;;;8.60;;
8964;SDS011;4517;49.020;12.066;2023-02-01T00:41:09;10.23;;;8.93;;
8964;SDS011;4517;49.020;12.066;2023-02-01T00:43:37;9.33;;;8.40;;
8964;SDS011;4517;49.020;12.066;2023-02-01T00:46:03;11.23;;;8.20;;
8964;SDS011;4517;49.020;12.066;2023-02-01T00:48:28;10.33;;;9.07;;
8964;SDS011;4517;49.020;12.066;2023-02-01T00:50:54;9.37;;;8.47;;
8964;SDS011;4517;49.020;12.066;2023-02-01T00:53:23;9.43;;;8.23;;
8964;SDS011;4517;49.020;12.066;2023-02-01T00:55:49;8.53;;;7.83;;
8964;SDS011;4517;49.020;12.066;2023-02-01T00:58:14;9.67;;;8.40;;
8964;SDS011;4517;49.020;12.066;2023-02-01T01:00:40;8.83;;;8.13;;
8964;SDS011;4517;49.020;12.066;2023-02-01T01:03:06;9.80;;;8.93;;
8964;SDS011;4517;49.020;12.066;2023-02-01T01:05:46;8.30;;;7.60;;
8964;SDS011;4517;49.020;12.066;2023-02-01T01:08:13;10.80;;;8.30;;
8964;SDS011;4517;49.020;12.066;2023-02-01T01:10:42;9.90;;;8.80;;
8964;SDS011;4517;49.020;12.066;2023-02-01T01:13:08;8.33;;;7.63;;
8964;SDS011;4517;49.020;12.066;2023-02-01T01:15:37;8.53;;;7.67;;
8964;SDS011;4517;49.020;12.066;2023-02-01T01:18:04;9.37;;;8.57;;
8964;SDS011;4517;49.020;12.066;2023-02-01T01:20:29;10.03;;;9.10;;
8964;SDS011;4517;49.020;12.066;2023-02-01T01:22:55;9.43;;;8.53;;
8964;SDS011;4517;49.020;12.066;2023-02-01T01:25:20;13.67;;;8.93;;
8964;SDS011;4517;49.020;12.066;2023-02-01T01:27:46;16.07;;;9.10;;
8964;SDS011;4517;49.020;12.066;2023-02-01T01:30:12;9.63;;;8.63;;
8964;SDS011;4517;49.020;12.066;2023-02-01T01:32:38;9.43;;;8.50;;
8964;SDS011;4517;49.020;12.066;2023-02-01T01:35:03;9.10;;;8.17;;
8964;SDS011;4517;49.020;12.066;2023-02-01T01:37:31;8.70;;;8.00;;
8964;SDS011;4517;49.020;12.066;2023-02-01T01:39:57;9.37;;;8.27;;
8964;SDS011;4517;49.020;12.066;2023-02-01T01:42:22;9.70;;;8.80;;
8964;SDS011;4517;49.020;12.066;2023-02-01T01:47:35;9.70;;;8.70;;
8964;SDS011;4517;49.020;12.066;2023-02-01T01:50:04;10.23;;;8.40;;
8964;SDS011;4517;49.020;12.066;2023-02-01T01:52:32;9.27;;;8.57;;
8964;SDS011;4517;49.020;12.066;2023-02-01T01:54:59;8.47;;;7.77;;
8964;SDS011;4517;49.020;12.066;2023-02-01T01:57:38;10.13;;;8.60;;
8964;SDS011;4517;49.020;12.066;2023-02-01T02:00:08;8.50;;;7.80;;
8964;SDS011;4517;49.020;12.066;2023-02-01T02:02:36;9.40;;;8.30;;
8964;SDS011;4517;49.020;12.066;2023-02-01T02:05:03;8.87;;;8.13;;
8964;SDS011;4517;49.020;12.066;2023-02-01T02:07:32;9.80;;;8.90;;
8964;SDS011;4517;49.020;12.066;2023-02-01T02:10:02;8.40;;;7.60;;
8964;SDS011;4517;49.020;12.066;2023-02-01T02:12:31;8.40;;;7.70;;
8964;SDS011;4517;49.020;12.066;2023-02-01T02:14:57;8.70;;;7.90;;
8964;SDS011;4517;49.020;12.066;2023-02-01T02:26:05;8.43;;;7.63;;
8964;SDS011;4517;49.020;12.066;2023-02-01T02:29:02;8.07;;;7.33;;
8964;SDS011;4517;49.020;12.066;2023-02-01T02:31:58;8.03;;;7.40;;
8964;SDS011;4517;49.020;12.066;2023-02-01T02:34:40;8.37;;;7.57;;
8964;SDS011;4517;49.020;12.066;2023-02-01T02:42:34;8.10;;;7.40;;
8964;SDS011;4517;49.020;12.066;2023-02-01T02:45:36;10.23;;;7.13;;
8964;SDS011;4517;49.020;12.066;2023-02-01T02:48:26;8.10;;;7.40;;
8964;SDS011;4517;49.020;12.066;2023-02-01T02:51:01;9.33;;;7.17;;
8964;SDS011;4517;49.020;12.066;2023-02-01T02:53:50;10.23;;;7.40;;
8964;SDS011;4517;49.020;12.066;2023-02-01T02:56:44;8.27;;;7.47;;
8964;SDS011;4517;49.020;12.066;2023-02-01T02:59:30;8.50;;;7.87;;
8964;SDS011;4517;49.020;12.066;2023-02-01T03:02:16;7.90;;;7.30;;
8964;SDS011;4517;49.020;12.066;2023-02-01T03:05:01;8.30;;;7.60;;
8964;SDS011;4517;49.020;12.066;2023-02-01T03:13:00;8.53;;;7.70;;
8964;SDS011;4517;49.020;12.066;2023-02-01T03:15:49;7.93;;;7.33;;
8964;SDS011;4517;49.020;12.066;2023-02-01T03:18:27;8.37;;;7.57;;
8964;SDS011;4517;49.020;12.066;2023-02-01T03:21:02;8.70;;;7.30;;
8964;SDS011;4517;49.020;12.066;2023-02-01T03:23:45;8.47;;;7.77;;
8964;SDS011;4517;49.020;12.066;2023-02-01T03:26:14;8.40;;;7.80;;
8964;SDS011;4517;49.020;12.066;2023-02-01T03:28:44;8.63;;;7.97;;
8964;SDS011;4517;49.020;12.066;2023-02-01T03:31:23;10.47;;;7.40;;
8964;SDS011;4517;49.020;12.066;2023-02-01T03:33:49;9.07;;;8.27;;
8964;SDS011;4517;49.020;12.066;2023-02-01T03:36:22;8.10;;;7.30;;
8964;SDS011;4517;49.020;12.066;2023-02-01T03:39:07;7.73;;;7.13;;
8964;SDS011;4517;49.020;12.066;2023-02-01T03:41:49;8.03;;;7.33;;
8964;SDS011;4517;49.020;12.066;2023-02-01T03:47:35;8.10;;;7.33;;
8964;SDS011;4517;49.020;12.066;2023-02-01T03:50:08;8.07;;;7.37;;
8964;SDS011;4517;49.020;12.066;2023-02-01T03:52:40;7.67;;;7.07;;
8964;SDS011;4517;49.020;12.066;2023-02-01T03:55:07;8.57;;;7.87;;
8964;SDS011;4517;49.020;12.066;2023-02-01T03:57:35;8.53;;;7.87;;
8964;SDS011;4517;49.020;12.066;2023-02-01T04:00:15;9.03;;;8.40;;
8964;SDS011;4517;49.020;12.066;2023-02-01T04:02:44;8.60;;;7.90;;
8964;SDS011;4517;49.020;12.066;2023-02-01T04:05:10;8.80;;;7.97;;
8964;SDS011;4517;49.020;12.066;2023-02-01T04:07:36;8.30;;;7.53;;
8964;SDS011;4517;49.020;12.066;2023-02-01T04:10:02;7.73;;;7.17;;
8964;SDS011;4517;49.020;12.066;2023-02-01T04:12:28;7.13;;;6.63;;
8964;SDS011;4517;49.020;12.066;2023-02-01T04:14:54;8.30;;;7.47;;
8964;SDS011;4517;49.020;12.066;2023-02-01T04:17:19;7.70;;;7.10;;
8964;SDS011;4517;49.020;12.066;2023-02-01T04:19:45;8.63;;;8.07;;
8964;SDS011;4517;49.020;12.066;2023-02-01T04:22:11;8.97;;;8.17;;
8964;SDS011;4517;49.020;12.066;2023-02-01T04:24:37;8.70;;;8.10;;
8964;SDS011;4517;49.020;12.066;2023-02-01T04:27:02;8.10;;;7.53;;
8964;SDS011;4517;49.020;12.066;2023-02-01T04:29:28;7.97;;;7.37;;
8964;SDS011;4517;49.020;12.066;2023-02-01T04:31:54;9.23;;;8.50;;
8964;SDS011;4517;49.020;12.066;2023-02-01T04:34:19;7.90;;;7.40;;
8964;SDS011;4517;49.020;12.066;2023-02-01T04:36:47;7.80;;;7.30;;
8964;SDS011;4517;49.020;12.066;2023-02-01T04:39:13;8.37;;;7.87;;
8964;SDS011;4517;49.020;12.066;2023-02-01T04:41:38;7.33;;;6.93;;
8964;SDS011;4517;49.020;12.066;2023-02-01T04:44:04;7.00;;;6.50;;
8964;SDS011;4517;49.020;12.066;2023-02-01T04:46:30;7.27;;;6.83;;
8964;SDS011;4517;49.020;12.066;2023-02-01T04:48:55;7.10;;;6.50;;
8964;SDS011;4517;49.020;12.066;2023-02-01T04:51:21;9.60;;;7.50;;
8964;SDS011;4517;49.020;12.066;2023-02-01T04:53:47;7.03;;;6.60;;
8964;SDS011;4517;49.020;12.066;2023-02-01T04:56:12;7.40;;;6.80;;
8964;SDS011;4517;49.020;12.066;2023-02-01T04:58:38;8.07;;;7.47;;
8964;SDS011;4517;49.020;12.066;2023-02-01T05:01:04;7.23;;;6.73;;
8964;SDS011;4517;49.020;12.066;2023-02-01T05:03:33;8.30;;;6.77;;
8964;SDS011;4517;49.020;12.066;2023-02-01T05:05:59;7.17;;;6.47;;
8964;SDS011;4517;49.020;12.066;2023-02-01T05:08:25;6.63;;;6.03;;
8964;SDS011;4517;49.020;12.066;2023-02-01T05:10:51;7.50;;;7.00;;
8964;SDS011;4517;49.020;12.066;2023-02-01T05:13:17;7.40;;;6.90;;
8964;SDS011;4517;49.020;12.066;2023-02-01T05:16:02;7.37;;;6.77;;
8964;SDS011;4517;49.020;12.066;2023-02-01T05:18:27;9.43;;;7.10;;
8964;SDS011;4517;49.020;12.066;2023-02-01T05:20:53;8.30;;;7.10;;
8964;SDS011;4517;49.020;12.066;2023-02-01T05:23:18;7.53;;;7.03;;
8964;SDS011;4517;49.020;12.066;2023-02-01T05:25:44;7.97;;;6.87;;
8964;SDS011;4517;49.020;12.066;2023-02-01T05:28:09;7.10;;;6.60;;
8964;SDS011;4517;49.020;12.066;2023-02-01T05:30:35;6.73;;;6.33;;
8964;SDS011;4517;49.020;12.066;2023-02-01T05:33:01;6.40;;;5.90;;
8964;SDS011;4517;49.020;12.066;2023-02-01T05:35:27;7.00;;;6.60;;
8964;SDS011;4517;49.020;12.066;2023-02-01T05:37:53;6.40;;;6.10;;
8964;SDS011;4517;49.020;12.066;2023-02-01T05:40:18;6.37;;;6.03;;
8964;SDS011;4517;49.020;12.066;2023-02-01T05:42:44;7.10;;;6.70;;
8964;SDS011;4517;49.020;12.066;2023-02-01T05:45:09;7.80;;;7.30;;
8964;SDS011;4517;49.020;12.066;2023-02-01T05:47:35;6.37;;;6.07;;
8964;SDS011;4517;49.020;12.066;2023-02-01T05:50:01;7.40;;;6.90;;
8964;SDS011;4517;49.020;12.066;2023-02-01T05:52:27;6.90;;;6.50;;
8964;SDS011;4517;49.020;12.066;2023-02-01T05:54:52;7.80;;;7.10;;
8964;SDS011;4517;49.020;12.066;2023-02-01T05:57:18;7.57;;;6.87;;
8964;SDS011;4517;49.020;12.066;2023-02-01T05:59:43;7.73;;;6.23;;
8964;SDS011;4517;49.020;12.066;2023-02-01T06:02:11;6.70;;;6.30;;
8964;SDS011;4517;49.020;12.066;2023-02-01T06:04:36;6.60;;;6.23;;
8964;SDS011;4517;49.020;12.066;2023-02-01T06:07:03;7.00;;;6.60;;
8964;SDS011;4517;49.020;12.066;2023-02-01T06:09:28;8.40;;;7.83;;
8964;SDS011;4517;49.020;12.066;2023-02-01T06:11:54;8.10;;;7.40;;
8964;SDS011;4517;49.020;12.066;2023-02-01T06:14:20;10.00;;;9.40;;
8964;SDS011;4517;49.020;12.066;2023-02-01T06:16:46;10.40;;;9.80;;
8964;SDS011;4517;49.020;12.066;2023-02-01T06:19:11;10.83;;;10.10;;
8964;SDS011;4517;49.020;12.066;2023-02-01T06:21:38;10.90;;;10.17;;
8964;SDS011;4517;49.020;12.066;2023-02-01T06:24:03;11.23;;;10.33;;
8964;SDS011;4517;49.020;12.066;2023-02-01T06:26:29;10.50;;;9.80;;
8964;SDS011;4517;49.020;12.066;2023-02-01T06:28:55;10.30;;;9.70;;
8964;SDS011;4517;49.020;12.066;2023-02-01T06:31:21;11.27;;;10.57;;
8964;SDS011;4517;49.020;12.066;2023-02-01T06:33:46;10.80;;;10.20;;
8964;SDS011;4517;49.020;12.066;2023-02-01T06:36:13;12.50;;;11.53;;
8964;SDS011;4517;49.020;12.066;2023-02-01T06:38:40;16.90;;;15.80;;
8964;SDS011;4517;49.020;12.066;2023-02-01T06:41:06;13.77;;;12.97;;
8964;SDS011;4517;49.020;12.066;2023-02-01T06:43:32;10.20;;;9.70;;
8964;SDS011;4517;49.020;12.066;2023-02-01T06:46:01;11.67;;;10.80;;
8964;SDS011;4517;49.020;12.066;2023-02-01T06:48:28;12.30;;;11.33;;
8964;SDS011;4517;49.020;12.066;2023-02-01T06:50:54;12.27;;;11.57;;
8964;SDS011;4517;49.020;12.066;2023-02-01T06:53:20;10.60;;;10.00;;
8964;SDS011;4517;49.020;12.066;2023-02-01T06:55:55;11.03;;;10.43;;
8964;SDS011;4517;49.020;12.066;2023-02-01T06:58:32;10.57;;;10.07;;
8964;SDS011;4517;49.020;12.066;2023-02-01T07:00:58;10.97;;;10.37;;
8964;SDS011;4517;49.020;12.066;2023-02-01T07:03:30;11.50;;;10.77;;
8964;SDS011;4517;49.020;12.066;2023-02-01T07:05:56;11.50;;;10.70;;
8964;SDS011;4517;49.020;12.066;2023-02-01T07:08:26;11.70;;;11.10;;
8964;SDS011;4517;49.020;12.066;2023-02-01T07:10:53;13.63;;;12.80;;
8964;SDS011;4517;49.020;12.066;2023-02-01T07:13:18;13.63;;;12.83;;
8964;SDS011;4517;49.020;12.066;2023-02-01T07:15:44;14.10;;;13.27;;
8964;SDS011;4517;49.020;12.066;2023-02-01T07:18:13;13.67;;;12.67;;
8964;SDS011;4517;49.020;12.066;2023-02-01T07:20:39;14.53;;;13.63;;
8964;SDS011;4517;49.020;12.066;2023-02-01T07:23:05;12.13;;;11.27;;
8964;SDS011;4517;49.020;12.066;2023-02-01T07:25:31;12.60;;;11.73;;
8964;SDS011;4517;49.020;12.066;2023-02-01T07:27:57;14.20;;;13.20;;
8964;SDS011;4517;49.020;12.066;2023-02-01T07:30:22;15.87;;;14.87;;
8964;SDS011;4517;49.020;12.066;2023-02-01T07:32:48;18.70;;;17.30;;
8964;SDS011;4517;49.020;12.066;2023-02-01T07:35:13;19.63;;;18.33;;
8964;SDS011;4517;49.020;12.066;2023-02-01T07:37:39;21.27;;;20.03;;
8964;SDS011;4517;49.020;12.066;2023-02-01T07:40:05;21.33;;;19.20;;
8964;SDS011;4517;49.020;12.066;2023-02-01T07:42:31;25.97;;;24.20;;
8964;SDS011;4517;49.020;12.066;2023-02-01T07:44:57;24.43;;;22.70;;
8964;SDS011;4517;49.020;12.066;2023-02-01T07:47:22;23.80;;;22.40;;
8964;SDS011;4517;49.020;12.066;2023-02-01T07:49:48;20.90;;;19.40;;
8964;SDS011;4517;49.020;12.066;2023-02-01T07:52:13;21.77;;;20.07;;
8964;SDS011;4517;49.020;12.066;2023-02-01T07:54:42;24.50;;;22.97;;
8964;SDS011;4517;49.020;12.066;2023-02-01T07:57:08;24.87;;;22.60;;
8964;SDS011;4517;49.020;12.066;2023-02-01T07:59:36;24.30;;;22.80;;
8964;SDS011;4517;49.020;12.066;2023-02-01T08:02:22;22.30;;;21.00;;
8964;SDS011;4517;49.020;12.066;2023-02-01T08:04:47;22.67;;;21.37;;
8964;SDS011;4517;49.020;12.066;2023-02-01T08:07:13;21.00;;;19.60;;
8964;SDS011;4517;49.020;12.066;2023-02-01T08:09:38;20.10;;;18.80;;
8964;SDS011;4517;49.020;12.066;2023-02-01T08:12:04;18.90;;;17.70;;
8964;SDS011;4517;49.020;12.066;2023-02-01T08:14:30;24.50;;;22.77;;
8964;SDS011;4517;49.020;12.066;2023-02-01T08:16:55;16.90;;;15.80;;
8964;SDS011;4517;49.020;12.066;2023-02-01T08:19:21;16.13;;;14.93;;
8964;SDS011;4517;49.020;12.066;2023-02-01T08:21:47;15.87;;;14.70;;
8964;SDS011;4517;49.020;12.066;2023-02-01T08:24:13;14.60;;;13.50;;
8964;SDS011;4517;49.020;12.066;2023-02-01T08:26:39;14.70;;;13.70;;
8964;SDS011;4517;49.020;12.066;2023-02-01T08:29:05;15.13;;;14.03;;
8964;SDS011;4517;49.020;12.066;2023-02-01T08:31:32;14.80;;;13.90;;
8964;SDS011;4517;49.020;12.066;2023-02-01T08:33:59;15.17;;;13.90;;
8964;SDS011;4517;49.020;12.066;2023-02-01T08:36:27;14.93;;;14.03;;
8964;SDS011;4517;49.020;12.066;2023-02-01T08:38:54;14.70;;;13.60;;
8964;SDS011;4517;49.020;12.066;2023-02-01T08:41:20;15.13;;;14.10;;
8964;SDS011;4517;49.020;12.066;2023-02-01T08:43:47;13.53;;;12.73;;
8964;SDS011;4517;49.020;12.066;2023-02-01T08:46:14;13.57;;;12.70;;
8964;SDS011;4517;49.020;12.066;2023-02-01T08:48:40;14.63;;;13.63;;
8964;SDS011;4517;49.020;12.066;2023-02-01T08:51:07;13.00;;;12.13;;
8964;SDS011;4517;49.020;12.066;2023-02-01T08:53:35;12.17;;;11.23;;
8964;SDS011;4517;49.020;12.066;2023-02-01T08:56:02;16.33;;;12.33;;
8964;SDS011;4517;49.020;12.066;2023-02-01T08:58:28;13.40;;;12.50;;
8964;SDS011;4517;49.020;12.066;2023-02-01T09:00:53;13.40;;;11.20;;
8964;SDS011;4517;49.020;12.066;2023-02-01T09:03:19;11.67;;;11.07;;
8964;SDS011;4517;49.020;12.066;2023-02-01T09:05:44;11.03;;;10.43;;
8964;SDS011;4517;49.020;12.066;2023-02-01T09:08:10;10.20;;;9.60;;
8964;SDS011;4517;49.020;12.066;2023-02-01T09:10:39;9.90;;;9.17;;
8964;SDS011;4517;49.020;12.066;2023-02-01T09:13:06;9.57;;;9.03;;
8964;SDS011;4517;49.020;12.066;2023-02-01T09:15:33;9.70;;;9.10;;
8964;SDS011;4517;49.020;12.066;2023-02-01T09:17:59;8.47;;;8.00;;
8964;SDS011;4517;49.020;12.066;2023-02-01T09:20:25;8.37;;;7.87;;
8964;SDS011;4517;49.020;12.066;2023-02-01T09:22:52;8.13;;;7.73;;
8964;SDS011;4517;49.020;12.066;2023-02-01T09:25:19;9.10;;;8.60;;
8964;SDS011;4517;49.020;12.066;2023-02-01T09:27:45;8.60;;;8.00;;
8964;SDS011;4517;49.020;12.066;2023-02-01T09:30:10;8.53;;;8.03;;
8964;SDS011;4517;49.020;12.066;2023-02-01T09:32:37;10.67;;;8.37;;
8964;SDS011;4517;49.020;12.066;2023-02-01T09:35:02;9.17;;;8.57;;
8964;SDS011;4517;49.020;12.066;2023-02-01T09:37:28;8.43;;;7.90;;
8964;SDS011;4517;49.020;12.066;2023-02-01T09:39:54;8.77;;;8.30;;
8964;SDS011;4517;49.020;12.066;2023-02-01T09:42:34;8.60;;;8.10;;
8964;SDS011;4517;49.020;12.066;2023-02-01T09:48:18;8.30;;;7.60;;
8964;SDS011;4517;49.020;12.066;2023-02-01T09:50:56;8.77;;;8.30;;
8964;SDS011;4517;49.020;12.066;2023-02-01T09:53:28;8.50;;;7.77;;
8964;SDS011;4517;49.020;12.066;2023-02-01T09:55:55;8.07;;;7.60;;
8964;SDS011;4517;49.020;12.066;2023-02-01T09:58:29;9.33;;;8.67;;
8964;SDS011;4517;49.020;12.066;2023-02-01T10:01:39;8.87;;;8.33;;
8964;SDS011;4517;49.020;12.066;2023-02-01T10:04:03;8.93;;;8.23;;
8964;SDS011;4517;49.020;12.066;2023-02-01T10:09:33;9.60;;;9.03;;
8964;SDS011;4517;49.020;12.066;2023-02-01T10:12:24;11.03;;;10.23;;
8964;SDS011;4517;49.020;12.066;2023-02-01T10:15:28;10.83;;;9.93;;
8964;SDS011;4517;49.020;12.066;2023-02-01T10:21:19;10.83;;;9.93;;
8964;SDS011;4517;49.020;12.066;2023-02-01T10:26:55;12.07;;;10.23;;
8964;SDS011;4517;49.020;12.066;2023-02-01T10:29:31;10.60;;;9.70;;
8964;SDS011;4517;49.020;12.066;2023-02-01T10:32:01;13.93;;;12.60;;
8964;SDS011;4517;49.020;12.066;2023-02-01T10:34:28;11.77;;;10.67;;
8964;SDS011;4517;49.020;12.066;2023-02-01T10:39:52;11.27;;;10.27;;
8964;SDS011;4517;49.020;12.066;2023-02-01T10:42:21;11.77;;;10.30;;
8964;SDS011;4517;49.020;12.066;2023-02-01T10:44:50;10.17;;;9.17;;
8964;SDS011;4517;49.020;12.066;2023-02-01T10:47:17;9.83;;;8.87;;
8964;SDS011;4517;49.020;12.066;2023-02-01T10:52:24;13.13;;;8.77;;
8964;SDS011;4517;49.020;12.066;2023-02-01T10:55:30;9.30;;;8.37;;
8964;SDS011;4517;49.020;12.066;2023-02-01T10:58:01;12.30;;;9.00;;
8964;SDS011;4517;49.020;12.066;2023-02-01T11:00:34;13.40;;;10.30;;
8964;SDS011;4517;49.020;12.066;2023-02-01T11:03:31;10.00;;;9.00;;
8964;SDS011;4517;49.020;12.066;2023-02-01T11:08:51;10.87;;;9.90;;
8964;SDS011;4517;49.020;12.066;2023-02-01T11:11:21;12.10;;;11.30;;
8964;SDS011;4517;49.020;12.066;2023-02-01T11:13:52;12.40;;;9.90;;
8964;SDS011;4517;49.020;12.066;2023-02-01T11:16:20;12.30;;;11.20;;
8964;SDS011;4517;49.020;12.066;2023-02-01T11:18:53;10.90;;;10.10;;
8964;SDS011;4517;49.020;12.066;2023-02-01T11:21:21;13.93;;;10.03;;
8964;SDS011;4517;49.020;12.066;2023-02-01T11:23:48;11.97;;;11.00;;
8964;SDS011;4517;49.020;12.066;2023-02-01T11:26:15;9.80;;;9.10;;
8964;SDS011;4517;49.020;12.066;2023-02-01T11:28:51;12.97;;;9.37;;
8964;SDS011;4517;49.020;12.066;2023-02-01T11:31:21;16.27;;;9.17;;
8964;SDS011;4517;49.020;12.066;2023-02-01T11:33:50;8.70;;;8.10;;
8964;SDS011;4517;49.020;12.066;2023-02-01T11:36:20;11.87;;;8.47;;
8964;SDS011;4517;49.020;12.066;2023-02-01T11:38:52;12.13;;;8.70;;
8964;SDS011;4517;49.020;12.066;2023-02-01T11:41:34;11.30;;;8.77;;
8964;SDS011;4517;49.020;12.066;2023-02-01T11:44:15;9.60;;;8.30;;
8964;SDS011;4517;49.020;12.066;2023-02-01T11:46:45;10.10;;;9.20;;
8964;SDS011;4517;49.020;12.066;2023-02-01T11:49:23;11.40;;;9.00;;
8964;SDS011;4517;49.020;12.066;2023-02-01T12:00:40;10.97;;;8.00;;
8964;SDS011;4517;49.020;12.066;2023-02-01T12:06:29;11.83;;;9.17;;
8964;SDS011;4517;49.020;12.066;2023-02-01T12:11:56;11.00;;;9.57;;
8964;SDS011;4517;49.020;12.066;2023-02-01T12:14:43;11.23;;;7.87;;
8964;SDS011;4517;49.020;12.066;2023-02-01T12:20:28;9.43;;;8.63;;
8964;SDS011;4517;49.020;12.066;2023-02-01T12:29:14;9.37;;;7.30;;
8964;SDS011;4517;49.020;12.066;2023-02-01T12:37:51;10.70;;;7.50;;
8964;SDS011;4517;49.020;12.066;2023-02-01T12:46:16;7.80;;;7.00;;
8964;SDS011;4517;49.020;12.066;2023-02-01T12:51:32;9.90;;;7.80;;
8964;SDS011;4517;49.020;12.066;2023-02-01T12:56:41;8.23;;;7.70;;
8964;SDS011;4517;49.020;12.066;2023-02-01T12:59:16;7.80;;;7.10;;
8964;SDS011;4517;49.020;12.066;2023-02-01T13:01:52;8.80;;;8.10;;
8964;SDS011;4517;49.020;12.066;2023-02-01T13:04:25;12.33;;;8.50;;
8964;SDS011;4517;49.020;12.066;2023-02-01T13:07:28;10.33;;;8.17;;
8964;SDS011;4517;49.020;12.066;2023-02-01T13:10:12;8.90;;;8.17;;
8964;SDS011;4517;49.020;12.066;2023-02-01T13:12:45;9.33;;;8.40;;
8964;SDS011;4517;49.020;12.066;2023-02-01T13:15:17;9.93;;;9.13;;
8964;SDS011;4517;49.020;12.066;2023-02-01T13:17:57;10.43;;;9.17;;
8964;SDS011;4517;49.020;12.066;2023-02-01T13:20:29;10.43;;;8.97;;
8964;SDS011;4517;49.020;12.066;2023-02-01T13:23:01;9.73;;;8.63;;
8964;SDS011;4517;49.020;12.066;2023-02-01T13:28:42;11.90;;;9.67;;
8964;SDS011;4517;49.020;12.066;2023-02-01T13:31:23;10.17;;;8.07;;
8964;SDS011;4517;49.020;12.066;2023-02-01T13:42:22;9.57;;;8.73;;
8964;SDS011;4517;49.020;12.066;2023-02-01T13:45:02;10.77;;;8.30;;
8964;SDS011;4517;49.020;12.066;2023-02-01T13:49:59;10.97;;;7.53;;
8964;SDS011;4517;49.020;12.066;2023-02-01T13:52:39;8.53;;;7.43;;
8964;SDS011;4517;49.020;12.066;2023-02-01T13:55:16;12.97;;;8.30;;
8964;SDS011;4517;49.020;12.066;2023-02-01T13:58:04;9.93;;;8.90;;
8964;SDS011;4517;49.020;12.066;2023-02-01T14:00:49;8.20;;;7.57;;
8964;SDS011;4517;49.020;12.066;2023-02-01T14:08:21;8.30;;;6.30;;
8964;SDS011;4517;49.020;12.066;2023-02-01T14:11:00;9.57;;;6.90;;
8964;SDS011;4517;49.020;12.066;2023-02-01T14:23:47;9.57;;;7.00;;
8964;SDS011;4517;49.020;12.066;2023-02-01T14:26:26;7.60;;;6.90;;
8964;SDS011;4517;49.020;12.066;2023-02-01T14:29:00;11.30;;;7.87;;
8964;SDS011;4517;49.020;12.066;2023-02-01T14:31:42;7.97;;;7.17;;
8964;SDS011;4517;49.020;12.066;2023-02-01T14:34:22;17.03;;;7.40;;
8964;SDS011;4517;49.020;12.066;2023-02-01T14:37:11;8.63;;;7.80;;
8964;SDS011;4517;49.020;12.066;2023-02-01T14:39:55;9.23;;;7.17;;
8964;SDS011;4517;49.020;12.066;2023-02-01T14:42:43;11.33;;;6.80;;
8964;SDS011;4517;49.020;12.066;2023-02-01T14:47:53;59.47;;;7.93;;
8964;SDS011;4517;49.020;12.066;2023-02-01T14:55:43;11.37;;;6.77;;
8964;SDS011;4517;49.020;12.066;2023-02-01T14:58:14;9.43;;;7.23;;
8964;SDS011;4517;49.020;12.066;2023-02-01T15:00:47;8.67;;;7.60;;
8964;SDS011;4517;49.020;12.066;2023-02-01T15:05:58;12.30;;;7.50;;
8964;SDS011;4517;49.020;12.066;2023-02-01T15:08:30;9.20;;;7.10;;
8964;SDS011;4517;49.020;12.066;2023-02-01T15:11:05;6.23;;;5.77;;
8964;SDS011;4517;49.020;12.066;2023-02-01T15:13:34;10.70;;;6.70;;
8964;SDS011;4517;49.020;12.066;2023-02-01T15:16:13;9.63;;;7.00;;
8964;SDS011;4517;49.020;12.066;2023-02-01T15:18:40;9.67;;;6.90;;
8964;SDS011;4517;49.020;12.066;2023-02-01T15:21:12;11.30;;;7.13;;
8964;SDS011;4517;49.020;12.066;2023-02-01T15:23:46;10.07;;;7.17;;
8964;SDS011;4517;49.020;12.066;2023-02-01T15:26:29;10.30;;;7.07;;
8964;SDS011;4517;49.020;12.066;2023-02-01T15:28:57;9.40;;;7.37;;
8964;SDS011;4517;49.020;12.066;2023-02-01T15:31:37;10.03;;;6.67;;
8964;SDS011;4517;49.020;12.066;2023-02-01T15:34:05;11.50;;;7.43;;
8964;SDS011;4517;49.020;12.066;2023-02-01T15:36:31;8.07;;;7.27;;
8964;SDS011;4517;49.020;12.066;2023-02-01T15:39:13;11.70;;;6.83;;
8964;SDS011;4517;49.020;12.066;2023-02-01T15:41:43;11.30;;;7.07;;
8964;SDS011;4517;49.020;12.066;2023-02-01T15:46:45;10.17;;;6.50;;
8964;SDS011;4517;49.020;12.066;2023-02-01T15:49:17;8.83;;;7.10;;
8964;SDS011;4517;49.020;12.066;2023-02-01T15:52:08;8.53;;;7.70;;
8964;SDS011;4517;49.020;12.066;2023-02-01T15:54:46;11.10;;;6.87;;
8964;SDS011;4517;49.020;12.066;2023-02-01T15:57:21;14.70;;;7.67;;
8964;SDS011;4517;49.020;12.066;2023-02-01T15:59:56;12.37;;;10.40;;
8964;SDS011;4517;49.020;12.066;2023-02-01T16:02:28;7.63;;;7.00;;
8964;SDS011;4517;49.020;12.066;2023-02-01T16:05:03;12.20;;;7.90;;
8964;SDS011;4517;49.020;12.066;2023-02-01T16:07:31;7.53;;;6.93;;
8964;SDS011;4517;49.020;12.066;2023-02-01T16:09:59;18.00;;;7.80;;
8964;SDS011;4517;49.020;12.066;2023-02-01T16:12:45;9.43;;;6.90;;
8964;SDS011;4517;49.020;12.066;2023-02-01T16:15:11;10.03;;;7.07;;
8964;SDS011;4517;49.020;12.066;2023-02-01T16:17:37;16.13;;;7.40;;
8964;SDS011;4517;49.020;12.066;2023-02-01T16:20:03;9.90;;;7.10;;
8964;SDS011;4517;49.020;12.066;2023-02-01T16:22:29;7.80;;;6.90;;
8964;SDS011;4517;49.020;12.066;2023-02-01T16:24:54;14.83;;;7.70;;
8964;SDS011;4517;49.020;12.066;2023-02-01T16:27:20;10.33;;;7.20;;
8964;SDS011;4517;49.020;12.066;2023-02-01T16:29:47;8.70;;;7.23;;
8964;SDS011;4517;49.020;12.066;2023-02-01T16:32:15;13.97;;;7.07;;
8964;SDS011;4517;49.020;12.066;2023-02-01T16:34:43;9.40;;;7.67;;
8964;SDS011;4517;49.020;12.066;2023-02-01T16:37:13;13.13;;;7.07;;
8964;SDS011;4517;49.020;12.066;2023-02-01T16:39:41;9.30;;;8.57;;
8964;SDS011;4517;49.020;12.066;2023-02-01T16:42:14;10.80;;;8.57;;
8964;SDS011;4517;49.020;12.066;2023-02-01T16:44:40;11.50;;;8.70;;
8964;SDS011;4517;49.020;12.066;2023-02-01T16:47:17;19.37;;;8.87;;
8964;SDS011;4517;49.020;12.066;2023-02-01T16:49:45;8.93;;;8.20;;
8964;SDS011;4517;49.020;12.066;2023-02-01T16:52:13;15.07;;;8.60;;
8964;SDS011;4517;49.020;12.066;2023-02-01T16:54:43;12.73;;;9.03;;
8964;SDS011;4517;49.020;12.066;2023-02-01T16:57:13;10.87;;;8.63;;
8964;SDS011;4517;49.020;12.066;2023-02-01T16:59:41;10.33;;;8.13;;
8964;SDS011;4517;49.020;12.066;2023-02-01T17:02:15;12.50;;;8.50;;
8964;SDS011;4517;49.020;12.066;2023-02-01T17:04:44;10.57;;;7.60;;
8964;SDS011;4517;49.020;12.066;2023-02-01T17:07:17;13.53;;;8.00;;
8964;SDS011;4517;49.020;12.066;2023-02-01T17:09:43;9.20;;;6.37;;
8964;SDS011;4517;49.020;12.066;2023-02-01T17:12:23;9.50;;;7.77;;
8964;SDS011;4517;49.020;12.066;2023-02-01T17:14:50;15.33;;;8.30;;
8964;SDS011;4517;49.020;12.066;2023-02-01T17:17:16;12.53;;;8.60;;
8964;SDS011;4517;49.020;12.066;2023-02-01T17:19:48;8.90;;;8.00;;
8964;SDS011;4517;49.020;12.066;2023-02-01T17:22:17;10.37;;;7.20;;
8964;SDS011;4517;49.020;12.066;2023-02-01T17:24:43;11.23;;;7.47;;